Ashley, Pennsylvania
Current Conditions -  °F | °C
As of 12:54 AM on Saturday 25 Oct 2014 (Local Time) from KAVP Reporting Station
Clear Clear  
Wind Chill: 44°   Ceiling: Unl
Heat Index: 44°   Visibility: 10mi
Dew Point: 34°   Wind: 0mph
Humidity: 68%   Direction: NA
Pressure: 29.91"   Gusts: NA
Location:  41.1921°N, 75.9213°W
Report Text: KAVP 250454Z AUTO 00000KT 10SM CLR 07/01 A2991 RMK AO2 SLP128 T00670011 401890067
Loading
Personal Weather Stations






























Interactive Weather Map
Tropical Storm Tracking
New forecast layout! Learn more

10-Day Weather Forecast

Advertisements
Track Severe Weather on mobile